createdAt,value
2023-04-27T00:00:11.875Z,94679.00
2023-04-27T00:01:11.681Z,94679.00
2023-04-27T00:02:11.772Z,94679.00
2023-04-27T00:03:11.891Z,94677.00
2023-04-27T00:04:11.895Z,94677.00
2023-04-27T00:05:12.003Z,94675.00
2023-04-27T00:06:11.912Z,94675.00
2023-04-27T00:07:11.895Z,94675.00
2023-04-27T00:08:11.930Z,94675.00
2023-04-27T00:09:12.236Z,94675.00
2023-04-27T00:10:11.979Z,94677.00
2023-04-27T00:11:12.006Z,94675.00
2023-04-27T00:12:12.048Z,94673.00
2023-04-27T00:13:12.109Z,94677.00
2023-04-27T00:14:12.118Z,94675.00
2023-04-27T00:15:12.152Z,94673.00
2023-04-27T00:16:12.186Z,94675.00
2023-04-27T00:17:12.212Z,94677.00
2023-04-27T00:18:12.238Z,94673.00
2023-04-27T00:19:12.485Z,94671.00
2023-04-27T00:20:12.346Z,94669.00
2023-04-27T00:21:12.338Z,94671.00
2023-04-27T00:22:12.370Z,94669.00
2023-04-27T00:23:12.414Z,94671.00
2023-04-27T00:24:12.432Z,94669.00
2023-04-27T00:25:12.613Z,94669.00
2023-04-27T00:26:12.502Z,94671.00
2023-04-27T00:27:12.551Z,94671.00
2023-04-27T00:28:12.620Z,94671.00
2023-04-27T00:29:12.824Z,94671.00
2023-04-27T00:30:12.637Z,94667.00
2023-04-27T00:31:12.663Z,94667.00
2023-04-27T00:32:12.720Z,94667.00
2023-04-27T00:33:12.749Z,94663.00
2023-04-27T00:34:12.764Z,94663.00
2023-04-27T00:35:12.813Z,94665.00
2023-04-27T00:36:12.846Z,94665.00
2023-04-27T00:37:12.862Z,94663.00
2023-04-27T00:38:12.925Z,94663.00
2023-04-27T00:39:13.155Z,94661.00
2023-04-27T00:40:12.982Z,94663.00
2023-04-27T00:41:13.018Z,94661.00
2023-04-27T00:42:13.056Z,94663.00
2023-04-27T00:43:13.076Z,94663.00
2023-04-27T00:44:13.107Z,94661.00
2023-04-27T00:45:13.183Z,94661.00
2023-04-27T00:46:13.282Z,94660.00
2023-04-27T00:47:13.236Z,94658.00
2023-04-27T00:48:13.274Z,94660.00
2023-04-27T00:49:13.480Z,94660.00
2023-04-27T00:50:13.334Z,94660.00
2023-04-27T00:51:13.417Z,94660.00
2023-04-27T00:52:13.411Z,94660.00
2023-04-27T00:53:13.425Z,94658.00
2023-04-27T00:54:13.447Z,94660.00
2023-04-27T00:55:13.476Z,94660.00
2023-04-27T00:56:13.562Z,94660.00
2023-04-27T00:57:13.556Z,94661.00
2023-04-27T00:58:13.623Z,94660.00
2023-04-27T00:59:13.842Z,94663.00
2023-04-27T01:00:13.763Z,94658.00
2023-04-27T01:01:13.770Z,94658.00
2023-04-27T01:02:13.936Z,94658.00
2023-04-27T01:03:14.005Z,94658.00
2023-04-27T01:04:13.966Z,94658.00
2023-04-27T01:05:13.855Z,94660.00
2023-04-27T01:06:13.874Z,94660.00
2023-04-27T01:07:13.913Z,94660.00
2023-04-27T01:08:13.945Z,94661.00
2023-04-27T01:09:14.321Z,94661.00
2023-04-27T01:10:14.029Z,94663.00
2023-04-27T01:11:14.048Z,94663.00
2023-04-27T01:12:14.080Z,94661.00
2023-04-27T01:13:14.132Z,94661.00
2023-04-27T01:14:14.155Z,94661.00
2023-04-27T01:15:14.230Z,94660.00
2023-04-27T01:16:14.275Z,94660.00
2023-04-27T01:17:14.369Z,94660.00
2023-04-27T01:18:14.357Z,94660.00
2023-04-27T01:19:14.706Z,94658.00
2023-04-27T01:20:14.401Z,94658.00
2023-04-27T01:21:14.460Z,94656.00
2023-04-27T01:22:14.544Z,94656.00
2023-04-27T01:23:16.773Z,94656.00
2023-04-27T01:24:14.514Z,94656.00
2023-04-27T01:25:14.576Z,94652.00
2023-04-27T01:26:14.584Z,94652.00
2023-04-27T01:27:14.482Z,94656.00
2023-04-27T01:28:14.489Z,94656.00
2023-04-27T01:29:14.761Z,94654.00
2023-04-27T01:30:14.486Z,94656.00
2023-04-27T01:31:14.546Z,94654.00
2023-04-27T01:32:14.478Z,94654.00
2023-04-27T01:33:14.486Z,94648.00
2023-04-27T01:34:14.454Z,94652.00
2023-04-27T01:35:14.489Z,94648.00
2023-04-27T01:36:14.421Z,94650.00
2023-04-27T01:37:14.463Z,94650.00
2023-04-27T01:38:14.460Z,94652.00
2023-04-27T01:39:14.699Z,94654.00
2023-04-27T01:40:14.420Z,94654.00
2023-04-27T01:41:14.408Z,94652.00
2023-04-27T01:42:14.400Z,94650.00
2023-04-27T01:43:14.386Z,94650.00
2023-04-27T01:44:14.395Z,94652.00
2023-04-27T01:45:14.417Z,94648.00
2023-04-27T01:46:14.420Z,94650.00
2023-04-27T01:47:14.381Z,94650.00
2023-04-27T01:48:14.380Z,94648.00
2023-04-27T01:49:14.552Z,94648.00
2023-04-27T01:50:14.375Z,94648.00
2023-04-27T01:51:14.389Z,94646.00
2023-04-27T01:52:14.352Z,94638.00
2023-04-27T01:53:14.350Z,94646.00
2023-04-27T01:54:14.320Z,94638.00
2023-04-27T01:55:14.352Z,94638.00
2023-04-27T01:56:14.318Z,94646.00
2023-04-27T01:57:14.335Z,94646.00
2023-04-27T01:58:14.305Z,94646.00
2023-04-27T01:59:14.525Z,94648.00
2023-04-27T02:00:14.268Z,94648.00
2023-04-27T02:01:14.317Z,94650.00
2023-04-27T02:02:14.287Z,94652.00
2023-04-27T02:03:14.369Z,94652.00
2023-04-27T02:04:14.472Z,94652.00
2023-04-27T02:05:14.254Z,94652.00
2023-04-27T02:06:14.252Z,94652.00
2023-04-27T02:07:14.233Z,94652.00
2023-04-27T02:08:14.235Z,94654.00
2023-04-27T02:09:14.424Z,94656.00
2023-04-27T02:10:14.241Z,94663.00
2023-04-27T02:11:14.221Z,94665.00
2023-04-27T02:12:14.299Z,94661.00
2023-04-27T02:13:14.321Z,94660.00
2023-04-27T02:14:14.389Z,94660.00
2023-04-27T02:15:14.417Z,94658.00
2023-04-27T02:16:14.480Z,94656.00
2023-04-27T02:17:14.490Z,94656.00
2023-04-27T02:18:14.505Z,94656.00
2023-04-27T02:19:14.718Z,94660.00
2023-04-27T02:20:14.619Z,94661.00
2023-04-27T02:21:14.642Z,94667.00
2023-04-27T02:22:14.670Z,94667.00
2023-04-27T02:23:14.716Z,94671.00
2023-04-27T02:24:14.760Z,94673.00
2023-04-27T02:25:14.851Z,94675.00
2023-04-27T02:26:14.842Z,94677.00
2023-04-27T02:27:14.879Z,94679.00
2023-04-27T02:28:14.895Z,94681.00
2023-04-27T02:29:15.882Z,94681.00
2023-04-27T02:30:15.022Z,94681.00
2023-04-27T02:31:15.087Z,94679.00
2023-04-27T02:32:15.078Z,94679.00
2023-04-27T02:33:15.145Z,94677.00
2023-04-27T02:34:15.156Z,94673.00
2023-04-27T02:35:15.201Z,94677.00
2023-04-27T02:36:15.283Z,94679.00
2023-04-27T02:37:15.319Z,94681.00
2023-04-27T02:38:15.317Z,94685.00
2023-04-27T02:39:15.615Z,94683.00
2023-04-27T02:40:15.475Z,94681.00
2023-04-27T02:41:15.457Z,94683.00
2023-04-27T02:42:15.507Z,94683.00
2023-04-27T02:43:15.550Z,94679.00
2023-04-27T02:44:15.592Z,94683.00
2023-04-27T02:45:15.657Z,94679.00
2023-04-27T02:46:15.710Z,94677.00
2023-04-27T02:47:15.765Z,94673.00
2023-04-27T02:48:15.771Z,94671.00
2023-04-27T02:49:16.131Z,94673.00
2023-04-27T02:50:15.862Z,94673.00
2023-04-27T02:51:15.917Z,94673.00
2023-04-27T02:52:15.950Z,94675.00
2023-04-27T02:53:15.984Z,94675.00
2023-04-27T02:54:16.035Z,94675.00
2023-04-27T02:55:23.146Z,94673.00
2023-04-27T02:56:16.051Z,94667.00
2023-04-27T02:57:16.051Z,94667.00
2023-04-27T02:58:16.064Z,94663.00
2023-04-27T02:59:16.281Z,94663.00
2023-04-27T03:00:16.036Z,94665.00
2023-04-27T03:01:16.060Z,94661.00
2023-04-27T03:02:16.022Z,94661.00
2023-04-27T03:03:16.142Z,94661.00
2023-04-27T03:04:16.254Z,94661.00
2023-04-27T03:05:16.019Z,94663.00
2023-04-27T03:06:15.976Z,94661.00
2023-04-27T03:07:15.979Z,94661.00
2023-04-27T03:08:15.993Z,94665.00
2023-04-27T03:09:16.451Z,94667.00
2023-04-27T03:10:15.960Z,94669.00
2023-04-27T03:11:15.968Z,94675.00
2023-04-27T03:12:15.967Z,94673.00
2023-04-27T03:13:15.958Z,94671.00
2023-04-27T03:14:15.977Z,94675.00
2023-04-27T03:15:15.945Z,94671.00
2023-04-27T03:16:16.663Z,94669.00
2023-04-27T03:17:15.909Z,94667.00
2023-04-27T03:18:15.918Z,94669.00
2023-04-27T03:19:16.089Z,94667.00
2023-04-27T03:20:15.912Z,94665.00
2023-04-27T03:21:15.890Z,94665.00
2023-04-27T03:22:15.951Z,94663.00
2023-04-27T03:23:15.930Z,94667.00
2023-04-27T03:24:15.998Z,94667.00
2023-04-27T03:25:16.048Z,94671.00
2023-04-27T03:26:16.124Z,94675.00
2023-04-27T03:27:16.145Z,94679.00
2023-04-27T03:28:16.177Z,94679.00
2023-04-27T03:29:16.278Z,94681.00
2023-04-27T03:30:16.290Z,94683.00
2023-04-27T03:31:16.375Z,94685.00
2023-04-27T03:32:16.380Z,94687.00
2023-04-27T03:33:16.555Z,94691.00
2023-04-27T03:34:16.457Z,94693.00
2023-04-27T03:35:16.498Z,94695.00
2023-04-27T03:36:16.585Z,94693.00
2023-04-27T03:37:16.589Z,94693.00
2023-04-27T03:38:16.645Z,94693.00
2023-04-27T03:39:16.736Z,94693.00
2023-04-27T03:40:16.768Z,94687.00
2023-04-27T03:41:16.770Z,94687.00
2023-04-27T03:42:16.816Z,94685.00
2023-04-27T03:43:16.861Z,94685.00
2023-04-27T03:44:16.884Z,94685.00
2023-04-27T03:45:16.951Z,94683.00
2023-04-27T03:46:17.012Z,94685.00
2023-04-27T03:47:17.041Z,94685.00
2023-04-27T03:48:17.094Z,94687.00
2023-04-27T03:49:17.126Z,94689.00
2023-04-27T03:50:17.165Z,94689.00
2023-04-27T03:51:17.200Z,94691.00
2023-04-27T03:52:17.267Z,94693.00
2023-04-27T03:53:17.301Z,94695.00
2023-04-27T03:54:17.338Z,94697.00
2023-04-27T03:55:17.408Z,94693.00
2023-04-27T03:56:17.454Z,94695.00
2023-04-27T03:57:17.483Z,94701.00
2023-04-27T03:58:17.550Z,94701.00
2023-04-27T03:59:17.586Z,94705.00
2023-04-27T04:00:17.677Z,94701.00
2023-04-27T04:01:17.658Z,94703.00
2023-04-27T04:02:17.794Z,94703.00
2023-04-27T04:03:18.050Z,94705.00
2023-04-27T04:04:17.918Z,94707.00
2023-04-27T04:05:17.988Z,94709.00
2023-04-27T04:06:17.911Z,94713.00
2023-04-27T04:07:17.959Z,94716.00
2023-04-27T04:08:18.008Z,94718.00
2023-04-27T04:09:18.050Z,94720.00
2023-04-27T04:10:18.105Z,94718.00
2023-04-27T04:11:18.157Z,94716.00
2023-04-27T04:12:18.194Z,94716.00
2023-04-27T04:13:18.279Z,94722.00
2023-04-27T04:14:18.294Z,94718.00
2023-04-27T04:15:18.331Z,94718.00
2023-04-27T04:16:18.460Z,94716.00
2023-04-27T04:17:18.497Z,94720.00
2023-04-27T04:18:18.495Z,94720.00
2023-04-27T04:19:19.586Z,94722.00
2023-04-27T04:20:18.586Z,94722.00
2023-04-27T04:21:18.509Z,94722.00
2023-04-27T04:22:18.512Z,94728.00
2023-04-27T04:23:18.505Z,94730.00
2023-04-27T04:24:18.505Z,94732.00
2023-04-27T04:25:18.538Z,94736.00
2023-04-27T04:26:18.485Z,94738.00
2023-04-27T04:27:18.510Z,94740.00
2023-04-27T04:28:18.502Z,94742.00
2023-04-27T04:29:18.462Z,94742.00
2023-04-27T04:30:18.483Z,94742.00
2023-04-27T04:31:18.542Z,94744.00
2023-04-27T04:32:18.454Z,94746.00
2023-04-27T04:33:18.455Z,94746.00
2023-04-27T04:34:18.459Z,94746.00
2023-04-27T04:35:18.417Z,94746.00
2023-04-27T04:36:18.420Z,94746.00
2023-04-27T04:37:18.438Z,94750.00
2023-04-27T04:38:18.405Z,94752.00
2023-04-27T04:39:18.394Z,94752.00
2023-04-27T04:40:18.418Z,94754.00
2023-04-27T04:41:18.389Z,94754.00
2023-04-27T04:42:18.382Z,94756.00
2023-04-27T04:43:18.442Z,94760.00
2023-04-27T04:44:18.344Z,94762.00
2023-04-27T04:45:18.348Z,94760.00
2023-04-27T04:46:18.374Z,94765.00
2023-04-27T04:47:18.333Z,94765.00
2023-04-27T04:48:18.334Z,94767.00
2023-04-27T04:49:18.353Z,94771.00
2023-04-27T04:50:18.348Z,94771.00
2023-04-27T04:51:18.357Z,94771.00
2023-04-27T04:52:18.300Z,94775.00
2023-04-27T04:53:18.302Z,94771.00
2023-04-27T04:54:18.303Z,94771.00
2023-04-27T04:55:18.283Z,94773.00
2023-04-27T04:56:18.306Z,94773.00
2023-04-27T04:57:18.265Z,94775.00
2023-04-27T04:58:18.280Z,94779.00
2023-04-27T04:59:18.252Z,94779.00
2023-04-27T05:00:18.257Z,94779.00
2023-04-27T05:01:18.301Z,94779.00
2023-04-27T05:02:18.476Z,94777.00
2023-04-27T05:03:18.428Z,94777.00
2023-04-27T05:04:18.471Z,94781.00
2023-04-27T05:05:18.393Z,94785.00
2023-04-27T05:06:18.427Z,94785.00
2023-04-27T05:07:22.112Z,94785.00
2023-04-27T05:08:19.480Z,94787.00
2023-04-27T05:09:18.438Z,94785.00
2023-04-27T05:10:18.454Z,94789.00
2023-04-27T05:11:18.431Z,94791.00
2023-04-27T05:12:18.417Z,94791.00
2023-04-27T05:13:18.438Z,94797.00
2023-04-27T05:14:18.418Z,94799.00
2023-04-27T05:15:18.417Z,94797.00
2023-04-27T05:16:18.566Z,94797.00
2023-04-27T05:17:18.412Z,94795.00
2023-04-27T05:18:18.417Z,94795.00
2023-04-27T05:19:18.450Z,94795.00
2023-04-27T05:20:18.517Z,94797.00
2023-04-27T05:21:18.551Z,94797.00
2023-04-27T05:22:18.618Z,94795.00
2023-04-27T05:23:18.624Z,94801.00
2023-04-27T05:24:18.743Z,94801.00
2023-04-27T05:25:18.842Z,94801.00
2023-04-27T05:26:18.850Z,94805.00
2023-04-27T05:27:18.847Z,94803.00
2023-04-27T05:28:18.914Z,94805.00
2023-04-27T05:29:18.941Z,94807.00
2023-04-27T05:30:19.048Z,94807.00
2023-04-27T05:31:19.104Z,94807.00
2023-04-27T05:32:19.121Z,94809.00
2023-04-27T05:33:19.134Z,94810.00
2023-04-27T05:34:19.203Z,94812.00
2023-04-27T05:35:19.268Z,94807.00
2023-04-27T05:36:19.270Z,94810.00
2023-04-27T05:37:19.321Z,94814.00
2023-04-27T05:38:19.381Z,94814.00
2023-04-27T05:39:19.411Z,94814.00
2023-04-27T05:40:19.464Z,94814.00
2023-04-27T05:41:19.493Z,94816.00
2023-04-27T05:42:20.221Z,94814.00
2023-04-27T05:43:19.738Z,94816.00
2023-04-27T05:44:19.630Z,94814.00
2023-04-27T05:45:19.643Z,94812.00
2023-04-27T05:46:19.873Z,94816.00
2023-04-27T05:47:19.686Z,94818.00
2023-04-27T05:48:19.698Z,94818.00
2023-04-27T05:49:19.769Z,94814.00
2023-04-27T05:50:19.765Z,94818.00
2023-04-27T05:51:19.771Z,94818.00
2023-04-27T05:52:19.794Z,94818.00
2023-04-27T05:53:20.231Z,94820.00
2023-04-27T05:54:19.831Z,94818.00
2023-04-27T05:55:19.848Z,94818.00
2023-04-27T05:56:19.931Z,94818.00
2023-04-27T05:57:19.858Z,94822.00
2023-04-27T05:58:19.890Z,94826.00
2023-04-27T05:59:19.882Z,94822.00
2023-04-27T06:00:20.296Z,94822.00
2023-04-27T06:01:19.905Z,94820.00
2023-04-27T06:02:20.048Z,94820.00
2023-04-27T06:03:19.977Z,94820.00
2023-04-27T06:04:20.047Z,94822.00
2023-04-27T06:05:19.969Z,94822.00
2023-04-27T06:06:19.946Z,94818.00
2023-04-27T06:07:19.869Z,94820.00
2023-04-27T06:08:20.790Z,94818.00
2023-04-27T06:09:19.909Z,94820.00
2023-04-27T06:10:19.925Z,94820.00
2023-04-27T06:11:19.939Z,94826.00
2023-04-27T06:12:19.954Z,94830.00
2023-04-27T06:13:19.993Z,94830.00
2023-04-27T06:14:20.123Z,94830.00
2023-04-27T06:15:20.770Z,94828.00
2023-04-27T06:16:20.120Z,94828.00
2023-04-27T06:17:20.112Z,94830.00
2023-04-27T06:18:20.105Z,94828.00
2023-04-27T06:19:20.209Z,94830.00
2023-04-27T06:20:20.310Z,94832.00
2023-04-27T06:21:20.273Z,94834.00
2023-04-27T06:22:20.308Z,94834.00
2023-04-27T06:23:20.351Z,94838.00
2023-04-27T06:24:20.655Z,94840.00
2023-04-27T06:25:20.567Z,94844.00
2023-04-27T06:26:20.585Z,94840.00
2023-04-27T06:27:20.820Z,94836.00
2023-04-27T06:28:20.671Z,94838.00
2023-04-27T06:29:20.755Z,94836.00
2023-04-27T06:30:20.882Z,94836.00
2023-04-27T06:31:20.935Z,94836.00
2023-04-27T06:32:20.897Z,94836.00
2023-04-27T06:33:20.960Z,94838.00
2023-04-27T06:34:21.000Z,94838.00
2023-04-27T06:35:21.080Z,94840.00
2023-04-27T06:36:21.134Z,94840.00
2023-04-27T06:37:21.211Z,94838.00
2023-04-27T06:38:21.273Z,94838.00
2023-04-27T06:39:21.280Z,94838.00
2023-04-27T06:40:21.356Z,94838.00
2023-04-27T06:41:21.397Z,94842.00
2023-04-27T06:42:21.443Z,94842.00
2023-04-27T06:43:21.771Z,94844.00
2023-04-27T06:44:21.550Z,94842.00
2023-04-27T06:45:21.594Z,94844.00
2023-04-27T06:46:21.704Z,94844.00
2023-04-27T06:47:21.738Z,94842.00
2023-04-27T06:48:21.860Z,94840.00
2023-04-27T06:49:21.902Z,94842.00
2023-04-27T06:50:21.958Z,94840.00
2023-04-27T06:51:22.007Z,94842.00
2023-04-27T06:52:22.105Z,94846.00
2023-04-27T06:53:22.140Z,94848.00
2023-04-27T06:54:22.201Z,94848.00
2023-04-27T06:55:22.226Z,94846.00
2023-04-27T06:56:22.302Z,94844.00
2023-04-27T06:57:22.387Z,94846.00
2023-04-27T06:58:22.404Z,94846.00
2023-04-27T06:59:22.473Z,94848.00
2023-04-27T07:00:22.516Z,94848.00
2023-04-27T07:01:22.659Z,94848.00
2023-04-27T07:02:24.925Z,94846.00
2023-04-27T07:03:22.757Z,94850.00
2023-04-27T07:04:22.906Z,94850.00
2023-04-27T07:05:22.656Z,94850.00
2023-04-27T07:06:22.612Z,94852.00
2023-04-27T07:07:22.633Z,94852.00
2023-04-27T07:08:22.614Z,94852.00
2023-04-27T07:09:27.483Z,94850.00
2023-04-27T07:10:23.609Z,94854.00
2023-04-27T07:11:22.585Z,94856.00
2023-04-27T07:12:22.583Z,94856.00
2023-04-27T07:13:22.583Z,94856.00
2023-04-27T07:14:22.552Z,94856.00
2023-04-27T07:15:22.602Z,94856.00
2023-04-27T07:16:22.578Z,94856.00
2023-04-27T07:17:22.615Z,94854.00
2023-04-27T07:18:22.789Z,94857.00
2023-04-27T07:19:22.534Z,94856.00
2023-04-27T07:20:22.539Z,94856.00
2023-04-27T07:21:22.579Z,94854.00
2023-04-27T07:22:22.540Z,94852.00
2023-04-27T07:23:22.614Z,94854.00
2023-04-27T07:24:22.585Z,94854.00
2023-04-27T07:25:22.680Z,94854.00
2023-04-27T07:26:22.754Z,94854.00
2023-04-27T07:27:22.681Z,94852.00
2023-04-27T07:28:22.713Z,94856.00
2023-04-27T07:29:27.187Z,94857.00
2023-04-27T07:30:22.737Z,94856.00
2023-04-27T07:31:22.731Z,94857.00
2023-04-27T07:32:22.862Z,94857.00
2023-04-27T07:33:22.753Z,94857.00
2023-04-27T07:34:22.730Z,94859.00
2023-04-27T07:35:22.674Z,94859.00
2023-04-27T07:36:22.693Z,94861.00
2023-04-27T07:37:22.693Z,94859.00
2023-04-27T07:38:22.787Z,94857.00
2023-04-27T07:39:24.295Z,94861.00
2023-04-27T07:40:22.644Z,94861.00
2023-04-27T07:41:22.857Z,94861.00
2023-04-27T07:42:22.743Z,94863.00
2023-04-27T07:43:22.811Z,94861.00
2023-04-27T07:44:22.918Z,94863.00
2023-04-27T07:45:23.028Z,94867.00
2023-04-27T07:46:23.899Z,94867.00
2023-04-27T07:47:23.055Z,94867.00
2023-04-27T07:48:23.355Z,94871.00
2023-04-27T07:49:23.211Z,94869.00
2023-04-27T07:50:23.263Z,94865.00
2023-04-27T07:51:23.803Z,94869.00
2023-04-27T07:52:23.362Z,94863.00
2023-04-27T07:53:23.408Z,94863.00
2023-04-27T07:54:23.482Z,94867.00
2023-04-27T07:55:23.604Z,94867.00
2023-04-27T07:56:23.760Z,94869.00
2023-04-27T07:57:23.666Z,94871.00
2023-04-27T07:58:23.792Z,94873.00
2023-04-27T07:59:23.831Z,94877.00
2023-04-27T08:00:23.978Z,94875.00
2023-04-27T08:01:23.898Z,94873.00
2023-04-27T08:02:24.107Z,94877.00
2023-04-27T08:03:24.550Z,94875.00
2023-04-27T08:04:24.319Z,94879.00
2023-04-27T08:05:24.619Z,94879.00
2023-04-27T08:06:24.853Z,94879.00
2023-04-27T08:07:24.290Z,94883.00
2023-04-27T08:08:24.353Z,94881.00
2023-04-27T08:09:24.396Z,94881.00
2023-04-27T08:10:24.478Z,94881.00
2023-04-27T08:11:24.529Z,94881.00
2023-04-27T08:12:24.528Z,94881.00
2023-04-27T08:13:25.555Z,94883.00
2023-04-27T08:14:24.643Z,94881.00
2023-04-27T08:15:24.698Z,94879.00
2023-04-27T08:16:24.948Z,94881.00
2023-04-27T08:17:24.822Z,94883.00
2023-04-27T08:18:24.865Z,94883.00
2023-04-27T08:19:24.914Z,94877.00
2023-04-27T08:20:24.977Z,94879.00
2023-04-27T08:21:25.103Z,94879.00
2023-04-27T08:22:25.080Z,94877.00
2023-04-27T08:23:25.199Z,94877.00
2023-04-27T08:24:25.162Z,94875.00
2023-04-27T08:25:25.224Z,94879.00
2023-04-27T08:26:26.409Z,94879.00
2023-04-27T08:27:25.357Z,94879.00
2023-04-27T08:28:25.396Z,94883.00
2023-04-27T08:29:28.585Z,94881.00
2023-04-27T08:30:25.484Z,94881.00
2023-04-27T08:31:25.842Z,94883.00
2023-04-27T08:32:25.429Z,94883.00
2023-04-27T08:33:25.404Z,94877.00
2023-04-27T08:34:25.406Z,94875.00
2023-04-27T08:35:25.374Z,94873.00
2023-04-27T08:36:25.368Z,94873.00
2023-04-27T08:37:25.471Z,94873.00
2023-04-27T08:38:25.734Z,94873.00
2023-04-27T08:39:25.334Z,94871.00
2023-04-27T08:40:25.345Z,94867.00
2023-04-27T08:41:25.386Z,94865.00
2023-04-27T08:42:25.402Z,94869.00
2023-04-27T08:43:25.320Z,94869.00
2023-04-27T08:44:25.310Z,94867.00
2023-04-27T08:45:25.298Z,94865.00
2023-04-27T08:46:25.364Z,94871.00
2023-04-27T08:47:35.133Z,94869.00
2023-04-27T08:48:26.335Z,94863.00
2023-04-27T08:49:25.271Z,94863.00
2023-04-27T08:50:25.307Z,94865.00
2023-04-27T08:51:25.273Z,94867.00
2023-04-27T08:52:25.254Z,94863.00
2023-04-27T08:53:25.247Z,94861.00
2023-04-27T08:54:25.235Z,94861.00
2023-04-27T08:55:25.260Z,94861.00
2023-04-27T08:56:25.307Z,94863.00
2023-04-27T08:57:25.321Z,94863.00
2023-04-27T08:58:25.342Z,94861.00
2023-04-27T08:59:25.438Z,94861.00
2023-04-27T09:00:25.472Z,94863.00
2023-04-27T09:01:25.540Z,94861.00
2023-04-27T09:02:25.732Z,94859.00
2023-04-27T09:03:25.788Z,94859.00
2023-04-27T09:04:25.778Z,94859.00
2023-04-27T09:05:25.834Z,94861.00
2023-04-27T09:06:25.876Z,94861.00
2023-04-27T09:07:27.988Z,94863.00
2023-04-27T09:08:25.835Z,94861.00
2023-04-27T09:09:25.832Z,94859.00
2023-04-27T09:10:25.853Z,94861.00
2023-04-27T09:11:25.830Z,94859.00
2023-04-27T09:12:25.799Z,94859.00
2023-04-27T09:13:25.791Z,94863.00
2023-04-27T09:14:25.796Z,94861.00
2023-04-27T09:15:25.808Z,94857.00
2023-04-27T09:16:25.828Z,94854.00
2023-04-27T09:17:25.799Z,94856.00
2023-04-27T09:18:25.782Z,94852.00
2023-04-27T09:19:25.752Z,94854.00
2023-04-27T09:20:25.735Z,94850.00
2023-04-27T09:21:25.739Z,94850.00
2023-04-27T09:22:25.714Z,94848.00
2023-04-27T09:23:25.726Z,94846.00
2023-04-27T09:24:25.714Z,94846.00
2023-04-27T09:25:25.723Z,94842.00
2023-04-27T09:26:25.731Z,94838.00
2023-04-27T09:27:25.754Z,94842.00
2023-04-27T09:28:25.679Z,94842.00
2023-04-27T09:29:25.691Z,94840.00
2023-04-27T09:30:25.656Z,94840.00
2023-04-27T09:31:25.678Z,94844.00
2023-04-27T09:32:25.691Z,94844.00
2023-04-27T09:33:25.654Z,94842.00
2023-04-27T09:34:25.660Z,94840.00
2023-04-27T09:35:25.644Z,94836.00
2023-04-27T09:36:25.633Z,94838.00
2023-04-27T09:37:25.632Z,94830.00
2023-04-27T09:38:26.305Z,94828.00
2023-04-27T09:39:25.658Z,94828.00
2023-04-27T09:40:25.603Z,94828.00
2023-04-27T09:41:25.600Z,94824.00
2023-04-27T09:42:25.596Z,94822.00
2023-04-27T09:43:25.699Z,94822.00
2023-04-27T09:44:25.684Z,94822.00
2023-04-27T09:45:25.841Z,94822.00
2023-04-27T09:46:25.593Z,94820.00
2023-04-27T09:47:25.633Z,94822.00
2023-04-27T09:48:25.794Z,94820.00
2023-04-27T09:49:25.692Z,94822.00
2023-04-27T09:50:25.723Z,94818.00
2023-04-27T09:51:25.828Z,94818.00
2023-04-27T09:52:26.033Z,94814.00
2023-04-27T09:53:25.920Z,94812.00
2023-04-27T09:54:26.069Z,94810.00
2023-04-27T09:55:26.042Z,94807.00
2023-04-27T09:56:26.088Z,94809.00
2023-04-27T09:57:26.163Z,94803.00
2023-04-27T09:58:26.204Z,94807.00
2023-04-27T09:59:26.273Z,94807.00
2023-04-27T10:00:26.328Z,94805.00
2023-04-27T10:01:26.412Z,94803.00
2023-04-27T10:02:26.504Z,94797.00
2023-04-27T10:03:26.562Z,94797.00
2023-04-27T10:04:26.672Z,94799.00
2023-04-27T10:05:26.615Z,94793.00
2023-04-27T10:06:26.642Z,94783.00
2023-04-27T10:07:26.677Z,94783.00
2023-04-27T10:08:26.733Z,94783.00
2023-04-27T10:09:26.824Z,94785.00
2023-04-27T10:10:26.825Z,94781.00
2023-04-27T10:11:26.954Z,94787.00
2023-04-27T10:12:26.962Z,94781.00
2023-04-27T10:13:26.978Z,94781.00
2023-04-27T10:14:27.050Z,94777.00
2023-04-27T10:15:27.054Z,94777.00
2023-04-27T10:16:27.168Z,94771.00
2023-04-27T10:17:27.231Z,94769.00
2023-04-27T10:18:27.317Z,94771.00
2023-04-27T10:19:27.257Z,94769.00
2023-04-27T10:20:27.261Z,94765.00
2023-04-27T10:21:27.363Z,94767.00
2023-04-27T10:22:27.337Z,94771.00
2023-04-27T10:23:29.318Z,94775.00
2023-04-27T10:24:27.427Z,94775.00
2023-04-27T10:25:27.490Z,94773.00
2023-04-27T10:26:27.533Z,94771.00
2023-04-27T10:27:27.515Z,94769.00
2023-04-27T10:28:27.552Z,94769.00
2023-04-27T10:29:27.829Z,94762.00
2023-04-27T10:30:28.336Z,94763.00
2023-04-27T10:31:27.748Z,94763.00
2023-04-27T10:32:27.847Z,94762.00
2023-04-27T10:33:28.326Z,94758.00
2023-04-27T10:34:28.602Z,94760.00
2023-04-27T10:35:27.842Z,94760.00
2023-04-27T10:36:27.930Z,94763.00
2023-04-27T10:37:27.934Z,94760.00
2023-04-27T10:38:27.947Z,94760.00
2023-04-27T10:39:43.753Z,94756.00
2023-04-27T10:40:29.011Z,94752.00
2023-04-27T10:41:28.364Z,94752.00
2023-04-27T10:42:28.016Z,94754.00
2023-04-27T10:43:28.059Z,94750.00
2023-04-27T10:44:27.967Z,94744.00
2023-04-27T10:45:31.119Z,94740.00
2023-04-27T10:46:28.062Z,94740.00
2023-04-27T10:47:27.958Z,94742.00
2023-04-27T10:48:27.939Z,94738.00
2023-04-27T10:49:27.990Z,94740.00
2023-04-27T10:50:27.929Z,94732.00
2023-04-27T10:51:27.995Z,94734.00
2023-04-27T10:52:27.961Z,94728.00
2023-04-27T10:53:27.919Z,94726.00
2023-04-27T10:54:27.883Z,94726.00
2023-04-27T10:55:27.960Z,94722.00
2023-04-27T10:56:27.938Z,94722.00
2023-04-27T10:57:27.918Z,94722.00
2023-04-27T10:58:37.777Z,94722.00
2023-04-27T10:59:28.857Z,94718.00
2023-04-27T11:00:27.861Z,94724.00
2023-04-27T11:01:27.966Z,94724.00
2023-04-27T11:02:27.958Z,94716.00
2023-04-27T11:03:27.900Z,94720.00
2023-04-27T11:04:27.834Z,94716.00
2023-04-27T11:05:27.917Z,94716.00
2023-04-27T11:06:27.898Z,94716.00
2023-04-27T11:07:27.897Z,94716.00
2023-04-27T11:08:27.821Z,94718.00
2023-04-27T11:09:27.843Z,94715.00
2023-04-27T11:10:27.788Z,94711.00
2023-04-27T11:11:27.816Z,94716.00
2023-04-27T11:12:27.770Z,94716.00
2023-04-27T11:13:27.900Z,94716.00
2023-04-27T11:14:27.796Z,94716.00
2023-04-27T11:15:27.767Z,94718.00
2023-04-27T11:16:28.059Z,94716.00
2023-04-27T11:17:27.946Z,94718.00
2023-04-27T11:18:27.978Z,94715.00
2023-04-27T11:19:27.875Z,94716.00
2023-04-27T11:20:27.910Z,94715.00
2023-04-27T11:21:28.369Z,94720.00
2023-04-27T11:22:28.055Z,94720.00
2023-04-27T11:23:27.993Z,94720.00
2023-04-27T11:24:28.387Z,94718.00
2023-04-27T11:25:28.059Z,94716.00
2023-04-27T11:26:28.376Z,94716.00
2023-04-27T11:27:28.090Z,94718.00
2023-04-27T11:28:28.159Z,94716.00
2023-04-27T11:29:28.383Z,94718.00
2023-04-27T11:30:28.203Z,94713.00
2023-04-27T11:31:28.423Z,94713.00
2023-04-27T11:32:28.290Z,94711.00
2023-04-27T11:33:28.307Z,94707.00
2023-04-27T11:34:28.322Z,94707.00
2023-04-27T11:35:28.411Z,94705.00
2023-04-27T11:36:28.406Z,94709.00
2023-04-27T11:37:28.429Z,94707.00
2023-04-27T11:38:28.483Z,94705.00
2023-04-27T11:39:28.653Z,94703.00
2023-04-27T11:40:28.593Z,94703.00
2023-04-27T11:41:28.547Z,94701.00
2023-04-27T11:42:28.754Z,94705.00
2023-04-27T11:43:28.632Z,94705.00
2023-04-27T11:44:28.663Z,94701.00